Back to Top

Language: 

My Weather Underground Personal Weather Station Historical Data with Graphs...

Delerius Weather Station Historical Data
Daily Summary for August 9, 2017 Units:  English    Metric   Both
« Previous Day
Next Day »
Daily Weekly Monthly Yearly Custom
  High: Low: Average:
Temperature: 64.9 °F 49.3 °F 57.9 °F
Dew Point: 55.5 °F 46.2 °F 51.7 °F
Humidity: 97 % 59 % 81 %
Wind Speed: 12.0 mph 0.0 mph 6.5 mph
Wind Gust: 24.0 mph - -
Wind:- - SSW
Pressure: 30.24 in 29.93 in -
Precipitation: 0.07 in    
Historical Graphs
 
 
Tabular Data for August 9, 2017
Time Temperature Dew Point Pressure Wind Wind Speed Wind Gust Humidity Rainfall Rate (Hourly) solar Conditions
00:01 53.4 °F 52.3 °F 29.93 in NNW 6.0 mph 12.0 mph 96 % 0.04 in 0 W/m2
00:06 53.4 °F 52.3 °F 29.93 in NNW 7.0 mph 12.0 mph 96 % 0.04 in 0 W/m2
00:11 53.4 °F 52.3 °F 29.93 in NNW 6.0 mph 12.0 mph 96 % 0.05 in 0 W/m2
00:16 53.4 °F 52.3 °F 29.93 in NNW 6.0 mph 13.0 mph 96 % 0.05 in 0 W/m2
00:21 53.4 °F 52.3 °F 29.93 in NNW 7.0 mph 13.0 mph 96 % 0.04 in 0 W/m2
00:26 53.4 °F 52.3 °F 29.93 in NW 6.0 mph 12.0 mph 96 % 0.03 in 0 W/m2
00:31 53.2 °F 52.1 °F 29.93 in NW 6.0 mph 12.0 mph 96 % 0.03 in 0 W/m2
00:36 53.2 °F 52.1 °F 29.93 in NW 5.0 mph 12.0 mph 96 % 0.02 in 0 W/m2
00:41 53.2 °F 52.1 °F 29.93 in NW 5.0 mph 12.0 mph 96 % 0.02 in 0 W/m2
00:46 53.2 °F 52.1 °F 29.93 in NW 4.0 mph 9.0 mph 96 % 0.02 in 0 W/m2
00:51 53.2 °F 52.1 °F 29.93 in NW 4.0 mph 13.0 mph 96 % 0.01 in 0 W/m2
00:56 53.1 °F 52.0 °F 29.93 in NW 5.0 mph 13.0 mph 96 % 0.01 in 0 W/m2
01:01 53.1 °F 52.0 °F 29.93 in NW 5.0 mph 10.0 mph 96 % 0.01 in 0 W/m2
01:06 53.1 °F 52.0 °F 29.93 in NW 5.0 mph 10.0 mph 96 % 0.01 in 0 W/m2
01:11 53.1 °F 52.0 °F 29.93 in NW 5.0 mph 12.0 mph 96 % 0.00 in 0 W/m2
01:16 53.1 °F 52.0 °F 29.93 in NW 5.0 mph 12.0 mph 96 % 0.00 in 0 W/m2
01:21 53.1 °F 52.0 °F 29.93 in NW 4.0 mph 9.0 mph 96 % 0.00 in 0 W/m2
01:26 53.1 °F 52.0 °F 29.93 in NW 4.0 mph 9.0 mph 96 % 0.00 in 0 W/m2
01:31 53.1 °F 52.0 °F 29.93 in NW 5.0 mph 9.0 mph 96 % 0.01 in 0 W/m2
01:36 53.1 °F 52.0 °F 29.94 in NW 6.0 mph 14.0 mph 96 % 0.01 in 0 W/m2
01:41 53.1 °F 52.0 °F 29.94 in NW 6.0 mph 14.0 mph 96 % 0.01 in 0 W/m2
01:46 53.1 °F 52.0 °F 29.94 in NW 7.0 mph 12.0 mph 96 % 0.01 in 0 W/m2
01:51 53.2 °F 52.1 °F 29.94 in NW 6.0 mph 12.0 mph 96 % 0.01 in 0 W/m2
01:56 53.2 °F 52.1 °F 29.94 in NNW 5.0 mph 12.0 mph 96 % 0.01 in 0 W/m2
02:01 53.2 °F 52.1 °F 29.94 in NW 6.0 mph 12.0 mph 96 % 0.01 in 0 W/m2
02:06 53.2 °F 52.1 °F 29.94 in NW 6.0 mph 12.0 mph 96 % 0.02 in 0 W/m2
02:11 53.2 °F 52.1 °F 29.94 in NW 6.0 mph 12.0 mph 96 % 0.02 in 0 W/m2
02:16 53.2 °F 52.1 °F 29.94 in NW 6.0 mph 10.0 mph 96 % 0.02 in 0 W/m2
02:21 53.2 °F 52.1 °F 29.94 in NW 5.0 mph 10.0 mph 96 % 0.02 in 0 W/m2
02:26 53.2 °F 52.1 °F 29.94 in NW 5.0 mph 10.0 mph 96 % 0.02 in 0 W/m2
02:31 53.2 °F 52.1 °F 29.94 in NW 5.0 mph 13.0 mph 96 % 0.02 in 0 W/m2
02:36 53.2 °F 52.1 °F 29.94 in NW 6.0 mph 13.0 mph 96 % 0.02 in 0 W/m2
02:41 53.2 °F 52.1 °F 29.94 in NW 5.0 mph 12.0 mph 96 % 0.02 in 0 W/m2
02:46 53.2 °F 52.1 °F 29.94 in NW 6.0 mph 12.0 mph 96 % 0.02 in 0 W/m2
02:51 53.2 °F 52.1 °F 29.93 in NW 6.0 mph 10.0 mph 96 % 0.02 in 0 W/m2
02:56 53.2 °F 52.1 °F 29.94 in NW 6.0 mph 10.0 mph 96 % 0.02 in 0 W/m2
03:01 53.4 °F 52.3 °F 29.94 in NW 6.0 mph 13.0 mph 96 % 0.01 in 0 W/m2
03:06 53.4 °F 52.3 °F 29.94 in NW 6.0 mph 13.0 mph 96 % 0.01 in 0 W/m2
03:11 53.4 °F 52.3 °F 29.94 in NW 6.0 mph 13.0 mph 96 % 0.02 in 0 W/m2
03:16 53.4 °F 52.3 °F 29.94 in NW 6.0 mph 13.0 mph 96 % 0.02 in 0 W/m2
03:21 53.6 °F 52.5 °F 29.94 in NW 6.0 mph 12.0 mph 96 % 0.02 in 0 W/m2
03:26 53.6 °F 52.5 °F 29.94 in NW 6.0 mph 12.0 mph 96 % 0.01 in 0 W/m2
03:31 53.6 °F 52.5 °F 29.94 in NW 7.0 mph 13.0 mph 96 % 0.01 in 0 W/m2
03:36 53.6 °F 52.5 °F 29.94 in NW 7.0 mph 13.0 mph 96 % 0.01 in 0 W/m2
03:41 53.8 °F 52.7 °F 29.94 in NW 6.0 mph 11.0 mph 96 % 0.02 in 0 W/m2
03:46 53.8 °F 52.7 °F 29.94 in NW 6.0 mph 10.0 mph 96 % 0.02 in 0 W/m2
03:51 53.8 °F 52.7 °F 29.94 in NW 6.0 mph 12.0 mph 96 % 0.02 in 0 W/m2
04:01 53.8 °F 52.9 °F 29.94 in NW 7.0 mph 13.0 mph 97 % 0.02 in 0 W/m2
04:06 53.8 °F 52.9 °F 29.94 in NW 7.0 mph 12.0 mph 97 % 0.02 in 0 W/m2
04:11 53.8 °F 52.9 °F 29.94 in NW 7.0 mph 13.0 mph 97 % 0.01 in 0 W/m2
04:16 54.0 °F 53.1 °F 29.94 in NW 7.0 mph 13.0 mph 97 % 0.01 in 0 W/m2
04:20 54.0 °F 53.1 °F 29.94 in NW 7.0 mph 13.0 mph 97 % 0.01 in 0 W/m2
04:21 54.0 °F 53.1 °F 29.93 in NW 7.0 mph 13.0 mph 97 % 0.01 in 0 W/m2
04:22 54.0 °F 53.1 °F 29.93 in NW 7.0 mph 13.0 mph 97 % 0.01 in 0 W/m2
04:27 54.0 °F 53.1 °F 29.94 in NW 7.0 mph 12.0 mph 97 % 0.02 in 0 W/m2
04:32 54.0 °F 53.1 °F 29.94 in NW 7.0 mph 14.0 mph 97 % 0.02 in 0 W/m2
04:37 54.1 °F 53.0 °F 29.94 in NW 7.0 mph 15.0 mph 96 % 0.02 in 0 W/m2
04:42 54.1 °F 53.0 °F 29.94 in NW 7.0 mph 15.0 mph 96 % 0.01 in 0 W/m2
04:52 54.1 °F 53.0 °F 29.94 in NW 6.0 mph 13.0 mph 96 % 0.02 in 0 W/m2
04:57 54.1 °F 53.0 °F 29.94 in NNW 5.0 mph 10.0 mph 96 % 0.02 in 0 W/m2
05:02 54.3 °F 53.2 °F 29.94 in NW 5.0 mph 12.0 mph 96 % 0.02 in 0 W/m2
05:07 54.3 °F 53.5 °F 29.94 in NW 6.0 mph 14.0 mph 97 % 0.02 in 0 W/m2
05:12 54.5 °F 53.7 °F 29.95 in NW 7.0 mph 14.0 mph 97 % 0.02 in 0 W/m2
05:17 54.5 °F 53.7 °F 29.95 in NNW 7.0 mph 13.0 mph 97 % 0.02 in 0 W/m2
05:22 54.7 °F 53.8 °F 29.95 in NNW 7.0 mph 14.0 mph 97 % 0.02 in 0 W/m2
05:27 54.7 °F 53.6 °F 29.95 in NNW 6.0 mph 14.0 mph 96 % 0.01 in 0 W/m2
05:32 54.7 °F 53.6 °F 29.95 in NNW 6.0 mph 14.0 mph 96 % 0.01 in 0 W/m2
05:37 54.9 °F 53.7 °F 29.95 in NNW 7.0 mph 14.0 mph 96 % 0.01 in 0 W/m2
05:42 54.9 °F 53.7 °F 29.95 in NNW 5.0 mph 11.0 mph 96 % 0.01 in 0 W/m2
05:47 54.9 °F 53.7 °F 29.95 in NNW 6.0 mph 16.0 mph 96 % 0.00 in 0 W/m2
05:52 54.9 °F 53.7 °F 29.96 in NNW 7.0 mph 16.0 mph 96 % 0.01 in 0 W/m2
05:57 55.0 °F 54.2 °F 29.95 in NNW 6.0 mph 13.0 mph 97 % 0.01 in 0 W/m2
06:02 55.0 °F 54.2 °F 29.96 in NNW 5.0 mph 13.0 mph 97 % 0.01 in 0 W/m2
06:07 55.0 °F 54.2 °F 29.96 in NNW 6.0 mph 14.0 mph 97 % 0.01 in 0 W/m2
06:12 55.0 °F 53.9 °F 29.96 in NNW 7.0 mph 14.0 mph 96 % 0.01 in 0 W/m2
06:17 55.0 °F 53.9 °F 29.96 in NNW 7.0 mph 14.0 mph 96 % 0.01 in 0 W/m2
06:22 55.0 °F 53.9 °F 29.96 in NNW 6.0 mph 16.0 mph 96 % 0.01 in 5 W/m2
06:27 55.2 °F 54.1 °F 29.96 in NNW 5.0 mph 16.0 mph 96 % 0.01 in 5 W/m2
06:32 55.2 °F 54.1 °F 29.97 in NNW 6.0 mph 14.0 mph 96 % 0.01 in 5 W/m2
06:37 55.2 °F 54.1 °F 29.97 in NNW 8.0 mph 14.0 mph 96 % 0.01 in 7 W/m2
06:42 55.2 °F 54.1 °F 29.97 in NNW 8.0 mph 15.0 mph 96 % 0.01 in 11 W/m2
06:47 55.2 °F 54.1 °F 29.97 in NNW 8.0 mph 15.0 mph 96 % 0.01 in 11 W/m2
06:52 55.2 °F 54.1 °F 29.97 in NNW 7.0 mph 15.0 mph 96 % 0.00 in 14 W/m2
06:57 55.4 °F 54.3 °F 29.97 in NNW 7.0 mph 15.0 mph 96 % 0.00 in 19 W/m2
07:02 55.4 °F 54.3 °F 29.97 in North 8.0 mph 15.0 mph 96 % 0.00 in 19 W/m2
07:07 55.4 °F 54.3 °F 29.97 in NNW 8.0 mph 15.0 mph 96 % 0.00 in 23 W/m2
07:12 55.4 °F 54.3 °F 29.97 in NNW 8.0 mph 15.0 mph 96 % 0.00 in 16 W/m2
07:17 55.4 °F 54.3 °F 29.98 in NNW 7.0 mph 14.0 mph 96 % 0.00 in 23 W/m2
07:22 55.4 °F 54.3 °F 29.98 in NNW 6.0 mph 14.0 mph 96 % 0.00 in 32 W/m2
07:27 55.6 °F 54.5 °F 29.98 in NNW 6.0 mph 14.0 mph 96 % 0.00 in 40 W/m2
07:32 55.6 °F 54.5 °F 29.98 in NNW 7.0 mph 14.0 mph 96 % 0.00 in 44 W/m2
07:37 55.6 °F 54.5 °F 29.98 in NNW 8.0 mph 16.0 mph 96 % 0.00 in 60 W/m2
07:42 55.6 °F 54.5 °F 29.98 in NNW 8.0 mph 19.0 mph 96 % 0.00 in 74 W/m2
07:47 55.6 °F 54.2 °F 29.99 in NNW 8.0 mph 19.0 mph 95 % 0.00 in 102 W/m2
07:52 55.8 °F 54.3 °F 29.99 in NNW 8.0 mph 16.0 mph 95 % 0.00 in 95 W/m2
07:57 55.8 °F 54.3 °F 29.99 in NNW 8.0 mph 16.0 mph 95 % 0.00 in 109 W/m2
08:02 55.9 °F 54.5 °F 29.99 in NNW 7.0 mph 13.0 mph 95 % 0.00 in 100 W/m2
08:07 55.9 °F 54.5 °F 29.99 in NNW 7.0 mph 19.0 mph 95 % 0.00 in 93 W/m2
08:12 55.9 °F 54.5 °F 29.99 in NNW 7.0 mph 19.0 mph 95 % 0.00 in 86 W/m2
08:17 55.9 °F 54.5 °F 30.00 in NNW 7.0 mph 16.0 mph 95 % 0.00 in 65 W/m2
08:22 56.1 °F 54.4 °F 30.00 in NNW 6.0 mph 16.0 mph 94 % 0.00 in 90 W/m2
08:27 56.1 °F 54.4 °F 30.00 in NNW 7.0 mph 14.0 mph 94 % 0.00 in 98 W/m2
08:32 56.1 °F 54.4 °F 30.00 in NNW 8.0 mph 14.0 mph 94 % 0.00 in 83 W/m2
08:37 56.1 °F 54.4 °F 30.00 in NNW 7.0 mph 15.0 mph 94 % 0.00 in 77 W/m2
08:42 56.1 °F 54.4 °F 30.00 in NNW 8.0 mph 18.0 mph 94 % 0.00 in 72 W/m2
08:47 56.3 °F 54.6 °F 30.00 in NNW 7.0 mph 18.0 mph 94 % 0.00 in 86 W/m2
08:52 56.3 °F 54.6 °F 30.01 in NNW 7.0 mph 15.0 mph 94 % 0.00 in 114 W/m2
08:57 56.5 °F 54.5 °F 30.01 in NNW 7.0 mph 15.0 mph 93 % 0.00 in 141 W/m2
09:02 56.7 °F 54.7 °F 30.01 in NNW 6.0 mph 12.0 mph 93 % 0.00 in 146 W/m2
09:07 56.7 °F 54.7 °F 30.01 in NNW 7.0 mph 15.0 mph 93 % 0.00 in 114 W/m2
09:12 56.8 °F 54.8 °F 30.01 in NNW 8.0 mph 15.0 mph 93 % 0.00 in 121 W/m2
09:17 56.8 °F 54.5 °F 30.01 in NNW 8.0 mph 18.0 mph 92 % 0.00 in 91 W/m2
09:22 56.8 °F 54.5 °F 30.02 in NNW 8.0 mph 18.0 mph 92 % 0.00 in 91 W/m2
09:27 56.8 °F 54.5 °F 30.02 in NNW 8.0 mph 19.0 mph 92 % 0.00 in 70 W/m2
09:32 56.7 °F 54.4 °F 30.02 in NNW 8.0 mph 19.0 mph 92 % 0.00 in 74 W/m2
09:37 56.7 °F 54.4 °F 30.02 in NNW 8.0 mph 15.0 mph 92 % 0.00 in 83 W/m2
09:42 56.7 °F 54.1 °F 30.03 in NNW 8.0 mph 14.0 mph 91 % 0.00 in 114 W/m2
09:47 56.8 °F 54.5 °F 30.03 in NNW 7.0 mph 13.0 mph 92 % 0.00 in 125 W/m2
09:52 57.0 °F 54.4 °F 30.03 in NNW 8.0 mph 20.0 mph 91 % 0.00 in 134 W/m2
09:57 57.0 °F 54.4 °F 30.04 in NNW 8.0 mph 20.0 mph 91 % 0.00 in 123 W/m2
10:02 57.2 °F 54.3 °F 30.04 in North 7.0 mph 16.0 mph 90 % 0.00 in 141 W/m2
10:07 57.2 °F 54.3 °F 30.04 in North 8.0 mph 16.0 mph 90 % 0.00 in 176 W/m2
10:12 57.4 °F 54.2 °F 30.04 in NNW 9.0 mph 19.0 mph 89 % 0.00 in 169 W/m2
10:17 57.6 °F 54.3 °F 30.04 in NNW 9.0 mph 19.0 mph 89 % 0.00 in 200 W/m2
10:22 57.7 °F 54.2 °F 30.04 in NNW 8.0 mph 20.0 mph 88 % 0.00 in 302 W/m2
10:27 58.3 °F 54.7 °F 30.04 in NNW 8.0 mph 20.0 mph 88 % 0.00 in 450 W/m2
10:32 58.8 °F 55.3 °F 30.05 in NNW 7.0 mph 14.0 mph 88 % 0.00 in 346 W/m2
10:37 59.4 °F 55.5 °F 30.05 in NNW 6.0 mph 11.0 mph 87 % 0.00 in 251 W/m2
10:42 59.5 °F 55.0 °F 30.05 in NNW 5.0 mph 12.0 mph 85 % 0.00 in 234 W/m2
10:48 59.5 °F 54.7 °F 30.05 in NNW 7.0 mph 19.0 mph 84 % 0.00 in 281 W/m2
10:53 59.5 °F 54.4 °F 30.05 in NNW 9.0 mph 20.0 mph 83 % 0.00 in 206 W/m2
10:58 59.4 °F 54.2 °F 30.05 in North 9.0 mph 20.0 mph 83 % 0.00 in 218 W/m2
11:03 59.4 °F 54.5 °F 30.05 in North 8.0 mph 18.0 mph 84 % 0.00 in 232 W/m2
11:08 59.4 °F 54.2 °F 30.05 in North 8.0 mph 16.0 mph 83 % 0.00 in 290 W/m2
11:13 59.4 °F 54.2 °F 30.06 in NNW 10.0 mph 20.0 mph 83 % 0.00 in 394 W/m2
11:18 59.7 °F 54.5 °F 30.05 in NNW 9.0 mph 20.0 mph 83 % 0.00 in 294 W/m2
11:23 60.1 °F 54.2 °F 30.06 in NNW 9.0 mph 18.0 mph 81 % 0.00 in 262 W/m2
11:28 60.1 °F 54.2 °F 30.06 in NNW 9.0 mph 20.0 mph 81 % 0.00 in 301 W/m2
11:33 60.3 °F 54.4 °F 30.06 in North 8.0 mph 20.0 mph 81 % 0.00 in 299 W/m2
11:38 60.3 °F 54.4 °F 30.06 in North 7.0 mph 18.0 mph 81 % 0.00 in 251 W/m2
11:43 60.3 °F 54.4 °F 30.06 in North 8.0 mph 18.0 mph 81 % 0.00 in 120 W/m2
11:48 60.1 °F 54.6 °F 30.06 in North 7.0 mph 18.0 mph 82 % 0.00 in 134 W/m2
11:53 59.9 °F 54.4 °F 30.06 in North 6.0 mph 13.0 mph 82 % 0.00 in 330 W/m2
11:58 59.9 °F 54.1 °F 30.06 in North 8.0 mph 14.0 mph 81 % 0.00 in 346 W/m2
12:03 60.1 °F 53.9 °F 30.07 in North 9.0 mph 21.0 mph 80 % 0.00 in 374 W/m2
12:08 60.4 °F 53.9 °F 30.07 in North 8.0 mph 21.0 mph 79 % 0.00 in 413 W/m2
12:13 60.6 °F 53.4 °F 30.07 in North 8.0 mph 19.0 mph 77 % 0.00 in 420 W/m2
12:19 61.0 °F 53.0 °F 30.07 in North 10.0 mph 21.0 mph 75 % 0.00 in 596 W/m2
12:24 61.3 °F 53.3 °F 30.07 in North 10.0 mph 21.0 mph 75 % 0.00 in 450 W/m2
12:29 62.2 °F 53.1 °F 30.07 in North 9.0 mph 23.0 mph 72 % 0.00 in 1092 W/m2
12:34 62.8 °F 52.8 °F 30.07 in North 11.0 mph 23.0 mph 70 % 0.00 in 373 W/m2
12:39 62.4 °F 52.1 °F 30.07 in North 11.0 mph 22.0 mph 69 % 0.00 in 494 W/m2
12:44 62.4 °F 52.1 °F 30.08 in NNE 10.0 mph 20.0 mph 69 % 0.00 in 431 W/m2
12:49 62.2 °F 51.9 °F 30.07 in NNE 9.0 mph 18.0 mph 69 % 0.00 in 483 W/m2
12:54 62.8 °F 53.2 °F 30.08 in North 9.0 mph 20.0 mph 71 % 0.00 in 436 W/m2
12:59 63.0 °F 52.6 °F 30.08 in North 9.0 mph 20.0 mph 69 % 0.00 in 327 W/m2
13:04 62.8 °F 52.1 °F 30.08 in North 10.0 mph 18.0 mph 68 % 0.00 in 239 W/m2
13:09 62.4 °F 51.7 °F 30.08 in NNW 10.0 mph 19.0 mph 68 % 0.00 in 343 W/m2
13:14 61.9 °F 50.8 °F 30.08 in North 11.0 mph 24.0 mph 67 % 0.00 in 262 W/m2
13:19 61.9 °F 51.2 °F 30.08 in North 11.0 mph 24.0 mph 68 % 0.00 in 297 W/m2
13:24 62.1 °F 51.8 °F 30.08 in North 7.0 mph 19.0 mph 69 % 0.00 in 401 W/m2
13:29 62.4 °F 52.1 °F 30.08 in North 7.0 mph 18.0 mph 69 % 0.00 in 856 W/m2
13:34 63.0 °F 51.8 °F 30.09 in North 10.0 mph 19.0 mph 67 % 0.00 in 919 W/m2
13:39 63.3 °F 51.3 °F 30.08 in North 12.0 mph 21.0 mph 65 % 0.00 in 937 W/m2
13:44 63.9 °F 51.4 °F 30.09 in North 12.0 mph 21.0 mph 64 % 0.00 in 1088 W/m2
13:49 64.0 °F 52.0 °F 30.09 in North 11.0 mph 20.0 mph 65 % 0.00 in 348 W/m2
13:54 63.9 °F 51.9 °F 30.09 in North 9.0 mph 18.0 mph 65 % 0.00 in 330 W/m2
13:59 63.5 °F 51.5 °F 30.09 in NNE 9.0 mph 20.0 mph 65 % 0.00 in 322 W/m2
14:04 63.7 °F 52.5 °F 30.09 in North 9.0 mph 20.0 mph 67 % 0.00 in 420 W/m2
14:09 63.7 °F 52.5 °F 30.09 in North 10.0 mph 20.0 mph 67 % 0.00 in 316 W/m2
14:14 63.9 °F 53.1 °F 30.09 in North 10.0 mph 20.0 mph 68 % 0.00 in 919 W/m2
14:19 64.2 °F 52.2 °F 30.09 in North 10.0 mph 19.0 mph 65 % 0.00 in 928 W/m2
14:24 64.4 °F 52.4 °F 30.09 in NNE 10.0 mph 20.0 mph 65 % 0.00 in 951 W/m2
14:29 64.4 °F 52.0 °F 30.10 in NNE 9.0 mph 20.0 mph 64 % 0.00 in 197 W/m2
14:34 64.0 °F 51.2 °F 30.10 in North 9.0 mph 20.0 mph 63 % 0.00 in 380 W/m2
14:39 64.0 °F 51.2 °F 30.10 in North 9.0 mph 20.0 mph 63 % 0.00 in 248 W/m2
14:44 63.7 °F 50.8 °F 30.10 in NNE 8.0 mph 16.0 mph 63 % 0.00 in 301 W/m2
14:49 63.9 °F 51.4 °F 30.10 in North 9.0 mph 16.0 mph 64 % 0.00 in 262 W/m2
14:54 63.7 °F 50.8 °F 30.10 in North 10.0 mph 21.0 mph 63 % 0.00 in 316 W/m2
14:59 63.9 °F 51.4 °F 30.10 in North 9.0 mph 23.0 mph 64 % 0.00 in 316 W/m2
15:04 64.0 °F 51.6 °F 30.11 in NNE 10.0 mph 23.0 mph 64 % 0.00 in 369 W/m2
15:09 64.2 °F 52.2 °F 30.10 in North 10.0 mph 18.0 mph 65 % 0.00 in 918 W/m2
15:14 64.6 °F 50.8 °F 30.11 in North 9.0 mph 18.0 mph 61 % 0.00 in 946 W/m2
15:19 64.9 °F 51.6 °F 30.11 in North 9.0 mph 19.0 mph 62 % 0.00 in 241 W/m2
15:24 64.6 °F 51.3 °F 30.11 in NNE 9.0 mph 19.0 mph 62 % 0.00 in 378 W/m2
15:29 64.2 °F 50.5 °F 30.11 in NNE 9.0 mph 18.0 mph 61 % 0.00 in 197 W/m2
15:34 63.7 °F 50.4 °F 30.11 in NNE 10.0 mph 19.0 mph 62 % 0.00 in 243 W/m2
15:39 63.9 °F 51.4 °F 30.11 in NNE 9.0 mph 19.0 mph 64 % 0.00 in 281 W/m2
15:44 63.9 °F 50.6 °F 30.11 in North 9.0 mph 20.0 mph 62 % 0.00 in 148 W/m2
15:49 63.7 °F 50.8 °F 30.11 in North 10.0 mph 20.0 mph 63 % 0.00 in 761 W/m2
15:54 63.9 °F 51.0 °F 30.11 in NNE 10.0 mph 21.0 mph 63 % 0.00 in 737 W/m2
15:59 64.0 °F 51.2 °F 30.11 in NNE 11.0 mph 21.0 mph 63 % 0.00 in 671 W/m2
16:04 64.6 °F 51.7 °F 30.12 in NNE 9.0 mph 16.0 mph 63 % 0.00 in 784 W/m2
16:09 64.9 °F 51.2 °F 30.11 in North 8.0 mph 19.0 mph 61 % 0.00 in 784 W/m2
16:14 64.9 °F 51.2 °F 30.12 in NNE 9.0 mph 19.0 mph 61 % 0.00 in 148 W/m2
16:19 64.6 °F 51.3 °F 30.12 in NNE 9.0 mph 16.0 mph 62 % 0.00 in 199 W/m2
16:24 64.0 °F 51.2 °F 30.12 in NNE 7.0 mph 15.0 mph 63 % 0.00 in 213 W/m2
16:29 63.9 °F 51.4 °F 30.12 in NNE 7.0 mph 14.0 mph 64 % 0.00 in 241 W/m2
16:34 64.0 °F 51.2 °F 30.12 in NNE 7.0 mph 14.0 mph 63 % 0.00 in 165 W/m2
16:39 63.9 °F 51.0 °F 30.12 in NNE 7.0 mph 16.0 mph 63 % 0.00 in 190 W/m2
16:44 63.9 °F 51.0 °F 30.12 in NNE 9.0 mph 16.0 mph 63 % 0.00 in 680 W/m2
16:49 64.2 °F 51.4 °F 30.12 in North 9.0 mph 16.0 mph 63 % 0.00 in 680 W/m2
16:54 64.2 °F 51.4 °F 30.13 in North 8.0 mph 14.0 mph 63 % 0.00 in 107 W/m2
16:59 63.9 °F 51.4 °F 30.13 in NNE 8.0 mph 16.0 mph 64 % 0.00 in 146 W/m2
17:04 63.5 °F 51.5 °F 30.13 in NNE 7.0 mph 16.0 mph 65 % 0.00 in 163 W/m2
17:09 63.1 °F 51.2 °F 30.13 in NNE 7.0 mph 15.0 mph 65 % 0.00 in 160 W/m2
17:14 63.0 °F 51.4 °F 30.13 in NNE 7.0 mph 15.0 mph 66 % 0.00 in 218 W/m2
17:19 63.0 °F 51.4 °F 30.13 in North 7.0 mph 13.0 mph 66 % 0.00 in 225 W/m2
17:24 63.1 °F 51.2 °F 30.13 in North 6.0 mph 13.0 mph 65 % 0.00 in 250 W/m2
17:29 63.5 °F 50.7 °F 30.13 in NNE 8.0 mph 16.0 mph 63 % 0.00 in 499 W/m2
17:34 64.0 °F 50.8 °F 30.13 in NNE 9.0 mph 16.0 mph 62 % 0.00 in 492 W/m2
17:36 64.0 °F 50.3 °F 30.13 in NNE 9.0 mph 16.0 mph 61 % 0.00 in 415 W/m2
17:41 63.9 °F 49.7 °F 30.14 in NNE 9.0 mph 15.0 mph 60 % 0.00 in 120 W/m2
17:46 63.3 °F 49.6 °F 30.14 in NNE 9.0 mph 15.0 mph 61 % 0.00 in 392 W/m2
17:56 64.0 °F 49.9 °F 30.14 in North 7.0 mph 15.0 mph 60 % 0.00 in 362 W/m2
18:01 64.2 °F 49.6 °F 30.14 in NNE 9.0 mph 20.0 mph 59 % 0.00 in 352 W/m2
18:06 64.2 °F 50.0 °F 30.14 in NNE 9.0 mph 20.0 mph 60 % 0.00 in 338 W/m2
18:11 64.4 °F 49.8 °F 30.14 in NNE 8.0 mph 19.0 mph 59 % 0.00 in 373 W/m2
18:16 64.4 °F 49.8 °F 30.15 in NNE 8.0 mph 19.0 mph 59 % 0.00 in 320 W/m2
18:21 64.4 °F 49.8 °F 30.15 in NNE 8.0 mph 18.0 mph 59 % 0.00 in 301 W/m2
18:26 64.0 °F 49.9 °F 30.15 in NE 8.0 mph 18.0 mph 60 % 0.00 in 272 W/m2
18:31 63.5 °F 49.4 °F 30.15 in NE 9.0 mph 18.0 mph 60 % 0.00 in 271 W/m2
18:36 63.3 °F 49.6 °F 30.15 in NNE 8.0 mph 15.0 mph 61 % 0.00 in 54 W/m2
18:37 63.1 °F 49.9 °F 30.15 in NNE 8.0 mph 15.0 mph 62 % 0.00 in 54 W/m2
18:42 63.0 °F 49.7 °F 30.15 in NNE 8.0 mph 14.0 mph 62 % 0.00 in 244 W/m2
18:47 62.6 °F 49.4 °F 30.15 in NNE 8.0 mph 18.0 mph 62 % 0.00 in 218 W/m2
18:52 62.4 °F 49.2 °F 30.16 in NNE 7.0 mph 18.0 mph 62 % 0.00 in 209 W/m2
18:57 62.1 °F 48.9 °F 30.16 in NNE 7.0 mph 15.0 mph 62 % 0.00 in 42 W/m2
19:02 61.9 °F 49.1 °F 30.16 in NNE 8.0 mph 15.0 mph 63 % 0.00 in 178 W/m2
19:07 62.1 °F 49.7 °F 30.16 in NNE 7.0 mph 14.0 mph 64 % 0.00 in 163 W/m2
19:12 62.1 °F 49.3 °F 30.16 in NNE 7.0 mph 16.0 mph 63 % 0.00 in 149 W/m2
19:17 61.7 °F 49.4 °F 30.16 in NNE 7.0 mph 16.0 mph 64 % 0.00 in 139 W/m2
19:22 61.5 °F 49.2 °F 30.17 in NNE 6.0 mph 14.0 mph 64 % 0.00 in 35 W/m2
19:27 61.3 °F 49.1 °F 30.17 in NNE 6.0 mph 11.0 mph 64 % 0.00 in 113 W/m2
19:32 61.2 °F 49.3 °F 30.17 in NNE 5.0 mph 10.0 mph 65 % 0.00 in 104 W/m2
19:37 61.2 °F 48.9 °F 30.17 in NNE 6.0 mph 14.0 mph 64 % 0.00 in 91 W/m2
19:42 61.0 °F 48.7 °F 30.17 in NNE 8.0 mph 16.0 mph 64 % 0.00 in 79 W/m2
19:47 61.0 °F 48.7 °F 30.17 in NNE 8.0 mph 16.0 mph 64 % 0.00 in 69 W/m2
19:52 60.6 °F 48.8 °F 30.17 in NNE 7.0 mph 19.0 mph 65 % 0.00 in 46 W/m2
19:57 60.3 °F 48.4 °F 30.18 in NNE 7.0 mph 19.0 mph 65 % 0.00 in 46 W/m2
20:02 60.1 °F 48.7 °F 30.18 in NNE 6.0 mph 18.0 mph 66 % 0.00 in 21 W/m2
20:07 59.7 °F 48.3 °F 30.18 in NNE 5.0 mph 14.0 mph 66 % 0.00 in 19 W/m2
20:12 59.5 °F 48.6 °F 30.18 in NE 6.0 mph 14.0 mph 67 % 0.00 in 18 W/m2
20:17 59.4 °F 48.4 °F 30.19 in NNE 7.0 mph 12.0 mph 67 % 0.00 in 14 W/m2
20:22 59.2 °F 48.2 °F 30.19 in NNE 7.0 mph 12.0 mph 67 % 0.00 in 14 W/m2
20:27 58.8 °F 48.3 °F 30.19 in NE 6.0 mph 10.0 mph 68 % 0.00 in 12 W/m2
20:32 58.6 °F 48.1 °F 30.19 in NNE 5.0 mph 10.0 mph 68 % 0.00 in 11 W/m2
20:37 58.5 °F 48.3 °F 30.20 in NNE 5.0 mph 11.0 mph 69 % 0.00 in 9 W/m2
20:42 58.5 °F 48.3 °F 30.19 in NNE 5.0 mph 11.0 mph 69 % 0.00 in 5 W/m2
20:47 58.3 °F 48.2 °F 30.20 in NNE 3.0 mph 10.0 mph 69 % 0.00 in 5 W/m2
20:52 58.1 °F 48.4 °F 30.20 in NNE 3.0 mph 7.0 mph 70 % 0.00 in 0 W/m2
20:57 57.9 °F 48.2 °F 30.20 in NNE 3.0 mph 7.0 mph 70 % 0.00 in 0 W/m2
21:02 57.7 °F 48.4 °F 30.20 in North 3.0 mph 7.0 mph 71 % 0.00 in 0 W/m2
21:07 57.4 °F 48.4 °F 30.20 in North 2.0 mph 7.0 mph 72 % 0.00 in 0 W/m2
21:12 57.2 °F 48.3 °F 30.21 in North 2.0 mph 6.0 mph 72 % 0.00 in 0 W/m2
21:17 57.0 °F 48.4 °F 30.21 in North 1.0 mph 6.0 mph 73 % 0.00 in 0 W/m2
21:22 56.8 °F 48.3 °F 30.21 in North 2.0 mph 7.0 mph 73 % 0.00 in 0 W/m2
21:27 56.7 °F 48.5 °F 30.22 in North 3.0 mph 7.0 mph 74 % 0.00 in 0 W/m2
21:32 56.5 °F 48.3 °F 30.22 in North 3.0 mph 8.0 mph 74 % 0.00 in 0 W/m2
21:38 56.5 °F 48.6 °F 30.22 in North 2.0 mph 8.0 mph 75 % 0.00 in 0 W/m2
21:42 56.3 °F 48.5 °F 30.22 in NNE 1.0 mph 5.0 mph 75 % 0.00 in 0 W/m2
21:47 56.1 °F 48.7 °F 30.22 in Calm   2.0 mph 76 % 0.00 in 0 W/m2
21:52 55.9 °F 48.5 °F 30.22 in Calm   2.0 mph 76 % 0.00 in 0 W/m2
21:57 55.6 °F 48.5 °F 30.22 in NNE 1.0 mph 4.0 mph 77 % 0.00 in 0 W/m2
22:03 55.4 °F 48.7 °F 30.23 in NNE 1.0 mph 4.0 mph 78 % 0.00 in 0 W/m2
22:08 55.2 °F 48.5 °F 30.23 in Calm   4.0 mph 78 % 0.00 in 0 W/m2
22:13 55.0 °F 48.6 °F 30.23 in NNE 1.0 mph 5.0 mph 79 % 0.00 in 0 W/m2
22:18 54.9 °F 48.5 °F 30.23 in NNE 1.0 mph 5.0 mph 79 % 0.00 in 0 W/m2
22:23 54.7 °F 48.3 °F 30.23 in NNE 1.0 mph 4.0 mph 79 % 0.00 in 0 W/m2
22:28 54.5 °F 48.5 °F 30.23 in Calm   4.0 mph 80 % 0.00 in 0 W/m2
22:33 54.1 °F 48.1 °F 30.23 in Calm     80 % 0.00 in 0 W/m2
22:38 53.8 °F 48.1 °F 30.23 in Calm     81 % 0.00 in 0 W/m2
22:43 53.4 °F 48.1 °F 30.23 in Calm     82 % 0.00 in 0 W/m2
22:48 53.1 °F 47.7 °F 30.23 in Calm     82 % 0.00 in 0 W/m2
22:53 52.9 °F 47.9 °F 30.23 in Calm     83 % 0.00 in 0 W/m2
22:58 52.3 °F 47.6 °F 30.24 in Calm     84 % 0.00 in 0 W/m2
23:03 52.0 °F 47.3 °F 30.24 in Calm     84 % 0.00 in 0 W/m2
23:04 52.0 °F 47.3 °F 30.24 in Calm     84 % 0.00 in 0 W/m2
23:09 51.6 °F 47.3 °F 30.24 in Calm     85 % 0.00 in 0 W/m2
23:14 51.3 °F 47.2 °F 30.24 in Calm     86 % 0.00 in 0 W/m2
23:19 51.1 °F 47.0 °F 30.24 in Calm     86 % 0.00 in 0 W/m2
23:24 50.7 °F 46.7 °F 30.24 in Calm     86 % 0.00 in 0 W/m2
23:29 50.5 °F 46.8 °F 30.24 in Calm     87 % 0.00 in 0 W/m2
23:34 50.4 °F 46.9 °F 30.24 in Calm   1.0 mph 88 % 0.00 in 0 W/m2
23:39 50.0 °F 46.6 °F 30.24 in Calm   1.0 mph 88 % 0.00 in 0 W/m2
23:44 49.8 °F 46.4 °F 30.24 in Calm   3.0 mph 88 % 0.00 in 0 W/m2
23:49 49.5 °F 46.4 °F 30.24 in Calm   3.0 mph 89 % 0.00 in 0 W/m2
23:54 49.3 °F 46.2 °F 30.24 in Calm   2.0 mph 89 % 0.00 in 0 W/m2
23:59 49.3 °F 46.5 °F 30.24 in Calm   2.0 mph 90 % 0.00 in 0 W/m2
Delerius-Weather
Compliments of Weather Underground - 2.25 mb

Data updates at regular intervals.